createdAt,value
2019-04-03T00:00:51.142Z,4.17
2019-04-03T00:03:23.631Z,4.67
2019-04-03T00:05:54.925Z,4.33
2019-04-03T00:08:26.776Z,4.77
2019-04-03T00:10:59.816Z,4.97
2019-04-03T00:13:31.235Z,4.60
2019-04-03T00:16:03.783Z,4.97
2019-04-03T00:18:35.355Z,4.90
2019-04-03T00:21:06.615Z,4.97
2019-04-03T00:23:38.224Z,4.73
2019-04-03T00:26:10.232Z,4.70
2019-04-03T00:28:41.678Z,4.33
2019-04-03T00:31:13.335Z,4.67
2019-04-03T00:33:44.785Z,4.97
2019-04-03T00:36:16.105Z,5.00
2019-04-03T00:38:47.772Z,5.13
2019-04-03T00:41:20.683Z,4.80
2019-04-03T00:43:54.259Z,4.80
2019-04-03T00:46:25.571Z,4.73
2019-04-03T00:48:58.439Z,4.30
2019-04-03T00:51:31.217Z,4.83
2019-04-03T00:54:02.673Z,4.13
2019-04-03T00:56:34.416Z,3.80
2019-04-03T00:59:05.677Z,4.00
2019-04-03T01:01:37.314Z,4.60
2019-04-03T01:04:09.375Z,4.47
2019-04-03T01:06:41.284Z,4.13
2019-04-03T01:09:12.890Z,3.93
2019-04-03T01:11:44.160Z,4.00
2019-04-03T01:14:15.992Z,3.90
2019-04-03T01:16:47.777Z,4.43
2019-04-03T01:19:19.191Z,3.60
2019-04-03T01:21:50.615Z,4.40
2019-04-03T01:24:21.936Z,3.60
2019-04-03T01:26:53.546Z,4.37
2019-04-03T01:29:25.059Z,4.00
2019-04-03T01:31:56.498Z,4.30
2019-04-03T01:34:28.110Z,4.47
2019-04-03T01:36:59.290Z,4.40
2019-04-03T01:39:31.242Z,4.20
2019-04-03T01:42:02.894Z,4.17
2019-04-03T01:44:34.458Z,4.50
2019-04-03T01:47:06.811Z,4.50
2019-04-03T01:49:38.459Z,4.33
2019-04-03T01:52:11.468Z,4.50
2019-04-03T01:54:43.190Z,4.30
2019-04-03T01:57:14.552Z,4.40
2019-04-03T01:59:45.898Z,4.47
2019-04-03T02:02:17.618Z,5.10
2019-04-03T02:04:49.404Z,4.70
2019-04-03T02:07:22.978Z,4.07
2019-04-03T02:09:54.397Z,4.53
2019-04-03T02:12:27.308Z,4.60
2019-04-03T02:14:58.668Z,4.57
2019-04-03T02:17:30.413Z,4.43
2019-04-03T02:20:02.290Z,4.40
2019-04-03T02:22:33.710Z,4.53
2019-04-03T02:25:06.518Z,5.30
2019-04-03T02:27:37.893Z,4.23
2019-04-03T02:30:13.034Z,4.93
2019-04-03T02:32:45.509Z,4.90
2019-04-03T02:35:17.039Z,5.47
2019-04-03T02:37:50.468Z,4.90
2019-04-03T02:40:21.659Z,5.57
2019-04-03T02:42:53.332Z,5.47
2019-04-03T02:45:25.083Z,5.00
2019-04-03T02:47:56.613Z,5.23
2019-04-03T02:50:28.950Z,5.47
2019-04-03T02:53:00.418Z,5.50
2019-04-03T02:55:32.481Z,5.40
2019-04-03T02:58:05.204Z,5.47
2019-04-03T03:00:38.126Z,5.60
2019-04-03T03:03:09.541Z,5.50
2019-04-03T03:05:40.892Z,6.13
2019-04-03T03:08:12.770Z,5.77
2019-04-03T03:10:44.546Z,6.20
2019-04-03T03:13:16.224Z,5.67
2019-04-03T03:15:49.367Z,5.90
2019-04-03T03:18:20.839Z,5.60
2019-04-03T03:20:54.267Z,6.33
2019-04-03T03:23:26.355Z,6.37
2019-04-03T03:25:58.339Z,6.17
2019-04-03T03:28:30.668Z,6.00
2019-04-03T03:31:05.260Z,6.10
2019-04-03T03:33:39.274Z,6.30
2019-04-03T03:36:09.873Z,6.23
2019-04-03T03:38:41.350Z,6.83
2019-04-03T03:41:15.295Z,6.57
2019-04-03T03:43:48.517Z,6.17
2019-04-03T03:46:20.260Z,6.47
2019-04-03T03:48:52.975Z,6.77
2019-04-03T03:51:24.689Z,6.90
2019-04-03T03:53:56.822Z,7.17
2019-04-03T03:56:31.304Z,7.13
2019-04-03T03:59:03.211Z,7.30
2019-04-03T04:01:34.723Z,7.83
2019-04-03T04:04:06.147Z,7.10
2019-04-03T04:06:38.782Z,7.33
2019-04-03T04:09:10.652Z,7.33
2019-04-03T04:11:43.162Z,7.63
2019-04-03T04:14:15.195Z,7.67
2019-04-03T04:16:46.941Z,7.70
2019-04-03T04:19:18.237Z,7.80
2019-04-03T04:21:49.793Z,8.27
2019-04-03T04:24:21.193Z,9.00
2019-04-03T04:26:52.948Z,9.00
2019-04-03T04:29:25.351Z,9.27
2019-04-03T04:31:57.179Z,8.73
2019-04-03T04:34:28.638Z,8.43
2019-04-03T04:37:03.110Z,8.60
2019-04-03T04:39:35.707Z,8.57
2019-04-03T04:42:06.963Z,9.20
2019-04-03T04:44:41.204Z,8.57
2019-04-03T04:47:14.564Z,8.53
2019-04-03T04:49:46.333Z,9.00
2019-04-03T04:52:18.098Z,8.20
2019-04-03T04:54:49.497Z,9.00
2019-04-03T04:57:21.187Z,8.63
2019-04-03T04:59:52.461Z,8.87
2019-04-03T05:02:23.840Z,8.23
2019-04-03T05:04:56.544Z,8.17
2019-04-03T05:07:30.828Z,8.63
2019-04-03T05:10:03.939Z,8.20
2019-04-03T05:12:38.785Z,7.87
2019-04-03T05:15:10.085Z,7.60
2019-04-03T05:17:41.874Z,8.40
2019-04-03T05:20:13.537Z,8.80
2019-04-03T05:22:45.369Z,8.67
2019-04-03T05:25:18.668Z,6.80
2019-04-03T05:27:50.255Z,7.37
2019-04-03T05:30:31.277Z,7.40
2019-04-03T05:33:02.821Z,7.63
2019-04-03T05:35:37.492Z,8.43
2019-04-03T05:38:10.372Z,8.23
2019-04-03T05:40:42.357Z,8.93
2019-04-03T05:43:13.991Z,8.50
2019-04-03T05:45:45.539Z,9.10
2019-04-03T05:48:18.431Z,9.03
2019-04-03T05:50:50.829Z,8.30
2019-04-03T05:53:22.447Z,8.30
2019-04-03T05:55:55.163Z,9.37
2019-04-03T05:58:26.961Z,9.50
2019-04-03T06:01:05.428Z,10.77
2019-04-03T06:03:40.783Z,10.63
2019-04-03T06:06:06.168Z,11.97
2019-04-03T06:08:39.071Z,11.90
2019-04-03T06:11:10.710Z,12.67
2019-04-03T06:13:44.025Z,12.37
2019-04-03T06:16:16.853Z,12.40
2019-04-03T06:18:48.330Z,11.80
2019-04-03T06:21:20.614Z,10.40
2019-04-03T06:23:53.033Z,11.07
2019-04-03T06:26:26.381Z,11.33
2019-04-03T06:28:57.926Z,10.60
2019-04-03T06:31:29.260Z,9.93
2019-04-03T06:34:00.859Z,10.13
2019-04-03T06:36:32.706Z,8.73
2019-04-03T06:39:06.470Z,8.53
2019-04-03T06:41:37.879Z,8.20
2019-04-03T06:44:11.174Z,8.60
2019-04-03T06:46:42.799Z,7.87
2019-04-03T06:49:14.402Z,7.10
2019-04-03T06:51:48.896Z,6.80
2019-04-03T06:54:20.610Z,7.17
2019-04-03T06:56:53.015Z,6.70
2019-04-03T06:59:24.763Z,6.60
2019-04-03T07:01:56.279Z,6.63
2019-04-03T07:04:28.098Z,5.80
2019-04-03T07:06:59.823Z,6.47
2019-04-03T07:09:35.661Z,6.33
2019-04-03T07:12:04.775Z,5.97
2019-04-03T07:14:36.176Z,5.67
2019-04-03T07:17:09.001Z,6.07
2019-04-03T07:19:40.963Z,6.10
2019-04-03T07:22:13.702Z,6.20
2019-04-03T07:24:45.505Z,6.73
2019-04-03T07:27:16.974Z,5.83
2019-04-03T07:29:49.689Z,5.60
2019-04-03T07:32:23.534Z,5.97
2019-04-03T07:34:55.255Z,5.80
2019-04-03T07:37:29.055Z,6.00
2019-04-03T07:40:00.498Z,5.00
2019-04-03T07:42:33.651Z,5.60
2019-04-03T07:45:05.832Z,5.60
2019-04-03T07:47:37.407Z,5.40
2019-04-03T07:50:10.921Z,6.20
2019-04-03T07:52:42.159Z,4.80
2019-04-03T07:55:13.909Z,4.77
2019-04-03T07:57:45.533Z,4.37
2019-04-03T08:00:17.441Z,4.60
2019-04-03T08:02:50.094Z,5.13
2019-04-03T08:05:22.221Z,4.50
2019-04-03T08:07:55.775Z,4.50
2019-04-03T08:10:29.367Z,4.27
2019-04-03T08:13:00.268Z,5.70
2019-04-03T08:15:33.492Z,7.60
2019-04-03T08:18:05.173Z,9.03
2019-04-03T08:20:37.103Z,21.23
2019-04-03T08:23:08.620Z,26.67
2019-04-03T08:25:42.404Z,9.10
2019-04-03T08:28:13.591Z,12.57
2019-04-03T08:30:45.722Z,13.30
2019-04-03T08:33:19.797Z,6.57
2019-04-03T08:35:50.256Z,4.50
2019-04-03T08:38:23.931Z,5.27
2019-04-03T08:40:55.442Z,6.93
2019-04-03T08:43:26.909Z,5.80
2019-04-03T08:45:58.386Z,4.80
2019-04-03T08:48:30.618Z,4.00
2019-04-03T08:51:03.707Z,3.37
2019-04-03T08:53:38.334Z,3.73
2019-04-03T08:56:09.902Z,5.43
2019-04-03T08:58:41.425Z,3.77
2019-04-03T09:01:12.976Z,5.33
2019-04-03T09:03:46.424Z,4.13
2019-04-03T09:06:18.141Z,6.00
2019-04-03T09:08:49.872Z,4.90
2019-04-03T09:11:21.848Z,8.67
2019-04-03T09:13:55.789Z,9.17
2019-04-03T09:16:28.825Z,7.30
2019-04-03T09:19:01.684Z,3.20
2019-04-03T09:21:33.160Z,8.63
2019-04-03T09:24:04.871Z,7.90
2019-04-03T09:26:38.029Z,3.40
2019-04-03T09:29:12.502Z,4.07
2019-04-03T09:31:44.110Z,7.90
2019-04-03T09:34:20.231Z,11.70
2019-04-03T09:36:50.889Z,7.00
2019-04-03T09:39:22.350Z,4.50
2019-04-03T09:41:53.677Z,3.87
2019-04-03T09:44:25.980Z,9.00
2019-04-03T09:46:57.582Z,5.80
2019-04-03T09:49:29.231Z,4.37
2019-04-03T09:52:00.610Z,6.17
2019-04-03T09:54:33.458Z,2.60
2019-04-03T09:57:05.832Z,5.63
2019-04-03T09:59:38.470Z,4.30
2019-04-03T10:02:10.263Z,4.33
2019-04-03T10:04:42.411Z,3.43
2019-04-03T10:07:13.749Z,4.53
2019-04-03T10:09:45.287Z,8.17
2019-04-03T10:12:17.111Z,2.00
2019-04-03T10:14:48.826Z,4.00
2019-04-03T10:17:21.051Z,2.47
2019-04-03T10:19:52.472Z,2.40
2019-04-03T10:22:24.946Z,3.00
2019-04-03T10:24:59.979Z,3.60
2019-04-03T10:27:30.267Z,7.70
2019-04-03T10:30:03.001Z,1.80
2019-04-03T10:32:35.884Z,5.27
2019-04-03T10:35:08.214Z,1.70
2019-04-03T10:37:41.677Z,1.60
2019-04-03T10:40:15.700Z,3.47
2019-04-03T10:42:47.596Z,2.00
2019-04-03T10:45:20.833Z,1.67
2019-04-03T10:47:55.717Z,3.03
2019-04-03T10:50:25.645Z,3.43
2019-04-03T10:52:57.544Z,4.67
2019-04-03T10:55:29.568Z,6.13
2019-04-03T10:58:04.519Z,5.67
2019-04-03T11:00:36.074Z,2.20
2019-04-03T11:03:07.451Z,1.70
2019-04-03T11:05:39.672Z,3.20
2019-04-03T11:08:11.519Z,2.60
2019-04-03T11:10:43.258Z,3.07
2019-04-03T11:13:15.716Z,2.60
2019-04-03T11:15:47.861Z,3.57
2019-04-03T11:18:21.060Z,3.50
2019-04-03T11:20:53.523Z,4.33
2019-04-03T11:23:38.268Z,3.87
2019-04-03T11:26:00.500Z,2.77
2019-04-03T11:28:33.064Z,4.03
2019-04-03T11:31:04.611Z,3.10
2019-04-03T11:33:36.367Z,1.50
2019-04-03T11:36:07.691Z,1.80
2019-04-03T11:38:40.812Z,2.13
2019-04-03T11:41:18.334Z,1.80
2019-04-03T11:43:47.658Z,1.27
2019-04-03T11:46:20.704Z,2.33
2019-04-03T11:48:52.404Z,1.67
2019-04-03T11:51:27.077Z,3.30
2019-04-03T11:53:58.954Z,2.40
2019-04-03T11:56:30.697Z,2.20
2019-04-03T11:59:03.029Z,3.17
2019-04-03T12:01:35.873Z,4.43
2019-04-03T12:04:07.443Z,1.90
2019-04-03T12:06:39.057Z,1.80
2019-04-03T12:09:10.363Z,1.27
2019-04-03T12:11:42.278Z,1.57
2019-04-03T12:14:14.994Z,1.50
2019-04-03T12:16:47.027Z,1.80
2019-04-03T12:19:18.703Z,2.27
2019-04-03T12:21:51.472Z,2.00
2019-04-03T12:24:22.920Z,1.53
2019-04-03T12:26:55.443Z,1.20
2019-04-03T12:29:28.115Z,1.40
2019-04-03T12:32:02.604Z,1.60
2019-04-03T12:34:32.901Z,2.20
2019-04-03T12:37:04.680Z,1.40
2019-04-03T12:39:36.246Z,2.17
2019-04-03T12:42:10.334Z,1.67
2019-04-03T12:44:42.068Z,1.90
2019-04-03T12:47:14.200Z,1.67
2019-04-03T12:49:46.012Z,1.33
2019-04-03T12:52:17.412Z,1.30
2019-04-03T12:54:51.242Z,1.37
2019-04-03T12:57:22.567Z,1.47
2019-04-03T12:59:54.528Z,1.50
2019-04-03T13:02:27.854Z,1.53
2019-04-03T13:05:00.983Z,1.70
2019-04-03T13:07:32.850Z,1.80
2019-04-03T13:10:07.743Z,1.20
2019-04-03T13:12:39.738Z,1.80
2019-04-03T13:15:12.516Z,1.50
2019-04-03T13:17:44.523Z,1.70
2019-04-03T13:20:17.996Z,1.30
2019-04-03T13:22:49.591Z,1.10
2019-04-03T13:25:22.924Z,1.50
2019-04-03T13:27:54.352Z,1.40
2019-04-03T13:30:25.774Z,1.50
2019-04-03T13:33:01.238Z,1.23
2019-04-03T13:35:30.847Z,1.30
2019-04-03T13:38:02.776Z,1.20
2019-04-03T13:40:34.906Z,1.40
2019-04-03T13:43:07.377Z,1.60
2019-04-03T13:45:39.134Z,1.27
2019-04-03T13:48:13.463Z,1.37
2019-04-03T13:50:45.881Z,1.53
2019-04-03T13:53:19.696Z,1.50
2019-04-03T13:55:51.147Z,1.50
2019-04-03T13:58:23.319Z,1.60
2019-04-03T14:01:01.403Z,1.40
2019-04-03T14:03:28.841Z,1.73
2019-04-03T14:06:00.442Z,1.40
2019-04-03T14:08:32.065Z,1.53
2019-04-03T14:11:05.247Z,1.40
2019-04-03T14:13:37.980Z,1.47
2019-04-03T14:16:19.855Z,1.50
2019-04-03T14:18:44.300Z,1.50
2019-04-03T14:21:16.260Z,1.57
2019-04-03T14:23:49.783Z,1.50
2019-04-03T14:26:22.109Z,1.70
2019-04-03T14:28:54.604Z,1.60
2019-04-03T14:31:34.375Z,1.50
2019-04-03T14:33:59.293Z,1.67
2019-04-03T14:36:31.137Z,1.50
2019-04-03T14:39:06.847Z,1.43
2019-04-03T14:41:37.319Z,1.80
2019-04-03T14:44:09.756Z,1.90
2019-04-03T14:46:41.421Z,2.10
2019-04-03T14:49:14.499Z,1.83
2019-04-03T14:51:47.137Z,1.93
2019-04-03T14:54:18.871Z,1.70
2019-04-03T14:56:51.441Z,2.00
2019-04-03T14:59:22.711Z,2.13
2019-04-03T15:01:54.700Z,1.83
2019-04-03T15:04:26.520Z,1.80
2019-04-03T15:07:03.625Z,1.70
2019-04-03T15:09:32.961Z,1.90
2019-04-03T15:12:06.633Z,2.03
2019-04-03T15:14:38.279Z,2.10
2019-04-03T15:17:10.329Z,1.90
2019-04-03T15:19:43.166Z,1.93
2019-04-03T15:22:15.428Z,2.20
2019-04-03T15:24:47.095Z,1.80
2019-04-03T15:27:18.353Z,2.03
2019-04-03T15:29:50.144Z,2.00
2019-04-03T15:32:22.185Z,1.80
2019-04-03T15:34:54.195Z,1.80
2019-04-03T15:37:27.557Z,1.97
2019-04-03T15:39:59.837Z,2.00
2019-04-03T15:42:31.342Z,1.80
2019-04-03T15:45:03.246Z,2.07
2019-04-03T15:47:39.105Z,1.80
2019-04-03T15:50:09.775Z,2.03
2019-04-03T15:52:43.578Z,2.10
2019-04-03T15:55:15.316Z,2.30
2019-04-03T15:57:46.757Z,2.30
2019-04-03T16:00:19.113Z,2.20
2019-04-03T16:02:50.357Z,2.20
2019-04-03T16:05:22.178Z,2.30
2019-04-03T16:07:53.893Z,2.00
2019-04-03T16:10:28.179Z,2.00
2019-04-03T16:12:59.916Z,2.20
2019-04-03T16:15:31.318Z,1.60
2019-04-03T16:18:05.912Z,1.70
2019-04-03T16:20:36.483Z,1.80
2019-04-03T16:23:10.241Z,1.90
2019-04-03T16:25:42.473Z,2.27
2019-04-03T16:28:14.333Z,1.93
2019-04-03T16:30:48.782Z,1.70
2019-04-03T16:33:23.528Z,2.20
2019-04-03T16:35:53.185Z,2.13
2019-04-03T16:38:27.711Z,2.57
2019-04-03T16:40:58.661Z,1.97
2019-04-03T16:43:32.201Z,2.20
2019-04-03T16:46:04.180Z,3.10
2019-04-03T16:48:38.489Z,2.60
2019-04-03T16:51:11.086Z,2.20
2019-04-03T16:53:44.810Z,2.40
2019-04-03T16:56:18.262Z,2.40
2019-04-03T16:58:49.140Z,3.13
2019-04-03T17:01:22.412Z,2.90
2019-04-03T17:03:54.794Z,2.40
2019-04-03T17:06:26.088Z,2.57
2019-04-03T17:08:58.691Z,2.13
2019-04-03T17:11:31.589Z,2.10
2019-04-03T17:14:03.213Z,2.10
2019-04-03T17:16:36.938Z,1.80
2019-04-03T17:19:07.683Z,1.93
2019-04-03T17:21:39.583Z,2.03
2019-04-03T17:24:11.849Z,2.03
2019-04-03T17:26:50.510Z,2.00
2019-04-03T17:29:17.139Z,2.37
2019-04-03T17:31:48.834Z,2.00
2019-04-03T17:34:20.573Z,2.47
2019-04-03T17:36:53.916Z,2.60
2019-04-03T17:39:25.581Z,2.37
2019-04-03T17:41:59.339Z,2.63
2019-04-03T17:44:30.958Z,3.20
2019-04-03T17:47:02.769Z,17.07
2019-04-03T17:49:34.381Z,3.50
2019-04-03T17:52:06.349Z,10.83
2019-04-03T17:54:39.349Z,6.10
2019-04-03T17:57:11.943Z,1.97
2019-04-03T17:59:44.250Z,4.73
2019-04-03T18:02:15.481Z,11.63
2019-04-03T18:04:46.862Z,4.63
2019-04-03T18:07:18.532Z,9.20
2019-04-03T18:09:50.011Z,18.40
2019-04-03T18:12:22.962Z,16.20
2019-04-03T18:14:55.696Z,13.47
2019-04-03T18:17:27.843Z,16.47
2019-04-03T18:19:59.401Z,12.10
2019-04-03T18:22:30.703Z,11.60
2019-04-03T18:25:02.064Z,6.90
2019-04-03T18:27:34.115Z,5.20
2019-04-03T18:30:11.322Z,3.57
2019-04-03T18:32:42.069Z,3.33
2019-04-03T18:35:13.829Z,3.10
2019-04-03T18:37:45.178Z,3.63
2019-04-03T18:40:16.776Z,2.97
2019-04-03T18:42:50.203Z,3.23
2019-04-03T18:45:25.361Z,3.07
2019-04-03T18:47:57.192Z,3.73
2019-04-03T18:50:34.964Z,3.40
2019-04-03T18:53:09.568Z,2.90
2019-04-03T18:55:40.574Z,2.93
2019-04-03T18:58:17.372Z,5.43
2019-04-03T19:00:50.786Z,3.73
2019-04-03T19:03:22.343Z,3.57
2019-04-03T19:05:54.111Z,3.50
2019-04-03T19:08:25.572Z,3.30
2019-04-03T19:11:02.617Z,3.17
2019-04-03T19:13:31.724Z,3.60
2019-04-03T19:16:03.190Z,3.40
2019-04-03T19:18:34.949Z,3.67
2019-04-03T19:21:06.901Z,3.30
2019-04-03T19:23:49.223Z,3.70
2019-04-03T19:26:11.534Z,3.40
2019-04-03T19:28:44.085Z,3.40
2019-04-03T19:31:15.577Z,3.60
2019-04-03T19:33:47.410Z,3.67
2019-04-03T19:36:20.305Z,3.33
2019-04-03T19:38:53.503Z,4.73
2019-04-03T19:41:26.604Z,3.80
2019-04-03T19:44:00.593Z,3.60
2019-04-03T19:46:31.003Z,3.80
2019-04-03T19:49:03.041Z,3.93
2019-04-03T19:51:35.601Z,5.03
2019-04-03T19:54:07.250Z,4.60
2019-04-03T19:56:38.665Z,4.40
2019-04-03T19:59:10.201Z,4.77
2019-04-03T20:01:41.606Z,4.83
2019-04-03T20:04:15.678Z,4.80
2019-04-03T20:06:46.983Z,4.63
2019-04-03T20:09:18.502Z,4.50
2019-04-03T20:11:53.104Z,5.20
2019-04-03T20:14:24.579Z,5.70
2019-04-03T20:16:58.597Z,5.87
2019-04-03T20:19:30.216Z,5.60
2019-04-03T20:22:01.383Z,5.30
2019-04-03T20:24:32.852Z,4.90
2019-04-03T20:27:04.579Z,5.13
2019-04-03T20:29:56.392Z,5.50
2019-04-03T20:32:30.191Z,6.20
2019-04-03T20:35:01.586Z,6.43
2019-04-03T20:37:32.963Z,6.43
2019-04-03T20:40:05.050Z,7.50
2019-04-03T20:42:36.958Z,6.60
2019-04-03T20:45:09.074Z,7.57
2019-04-03T20:47:40.541Z,10.90
2019-04-03T20:50:12.555Z,10.93
2019-04-03T20:52:46.091Z,10.83
2019-04-03T20:55:17.552Z,9.20
2019-04-03T20:57:55.326Z,8.80
2019-04-03T21:00:22.328Z,9.50
2019-04-03T21:02:54.158Z,9.37
2019-04-03T21:05:27.474Z,9.27
2019-04-03T21:07:58.902Z,9.07
2019-04-03T21:10:31.331Z,9.60
2019-04-03T21:13:03.834Z,9.60
2019-04-03T21:15:35.571Z,9.10
2019-04-03T21:18:07.199Z,10.33
2019-04-03T21:20:39.054Z,9.93
2019-04-03T21:23:10.382Z,10.33
2019-04-03T21:25:42.530Z,9.10
2019-04-03T21:28:14.158Z,9.03
2019-04-03T21:30:45.668Z,9.33
2019-04-03T21:33:17.385Z,9.23
2019-04-03T21:35:48.904Z,8.80
2019-04-03T21:38:20.244Z,8.83
2019-04-03T21:40:51.554Z,9.70
2019-04-03T21:43:23.320Z,9.33
2019-04-03T21:45:55.230Z,9.77
2019-04-03T21:48:26.686Z,9.97
2019-04-03T21:50:57.866Z,9.90
2019-04-03T21:53:29.556Z,10.53
2019-04-03T21:56:02.549Z,10.17
2019-04-03T21:58:34.390Z,8.87
2019-04-03T22:01:24.878Z,9.17
2019-04-03T22:03:56.308Z,8.60
2019-04-03T22:06:27.966Z,8.43
2019-04-03T22:09:00.737Z,7.67
2019-04-03T22:11:35.523Z,7.80
2019-04-03T22:14:06.630Z,7.27
2019-04-03T22:16:39.123Z,8.10
2019-04-03T22:19:10.624Z,7.73
2019-04-03T22:21:42.014Z,7.00
2019-04-03T22:24:13.786Z,7.50
2019-04-03T22:26:45.291Z,7.00
2019-04-03T22:29:19.654Z,7.47
2019-04-03T22:31:49.647Z,6.70
2019-04-03T22:34:20.897Z,6.80
2019-04-03T22:36:52.560Z,6.50
2019-04-03T22:39:23.811Z,6.77
2019-04-03T22:41:55.502Z,6.50
2019-04-03T22:44:26.802Z,7.20
2019-04-03T22:46:58.523Z,7.07
2019-04-03T22:49:33.652Z,6.93
2019-04-03T22:52:04.571Z,7.40
2019-04-03T22:54:36.296Z,7.93
2019-04-03T22:57:08.705Z,7.50
2019-04-03T22:59:40.123Z,7.90
2019-04-03T23:02:13.024Z,7.93
2019-04-03T23:04:46.271Z,8.30
2019-04-03T23:07:18.905Z,8.00
2019-04-03T23:09:50.666Z,8.30
2019-04-03T23:12:21.968Z,7.53
2019-04-03T23:14:53.391Z,8.13
2019-04-03T23:17:24.624Z,8.13
2019-04-03T23:19:55.887Z,8.23
2019-04-03T23:22:27.683Z,7.67
2019-04-03T23:24:59.476Z,7.40
2019-04-03T23:27:32.967Z,7.27
2019-04-03T23:30:04.918Z,7.33
2019-04-03T23:32:36.204Z,7.40
2019-04-03T23:35:07.901Z,7.57
2019-04-03T23:37:39.424Z,7.97
2019-04-03T23:40:10.977Z,9.03
2019-04-03T23:42:42.210Z,8.50
2019-04-03T23:45:13.937Z,8.07
2019-04-03T23:47:46.982Z,7.50
2019-04-03T23:50:18.171Z,7.70
2019-04-03T23:52:49.428Z,7.67
2019-04-03T23:55:21.126Z,7.30
2019-04-03T23:57:52.550Z,6.77
